Time;durP1;ratioP1;P1;durP2;ratioP2;P2;SDS_P1;SDS_P2;PMS_P1;PMS_P2;Temp;Humidity;BMP_temperature;BMP_pressure;BME280_temperature;BME280_humidity;BME280_pressure;Samples;Min_cycle;Max_cycle;Signal;HPM_P1;HPM_P2
2021/08/13 00:03:36;;;;;;;10.30;6.70;;;;;;;22.44;65.43;100525.25;10379886;28;20054;-61
2021/08/13 00:08:38;;;;;;;9.68;6.22;;;;;;;22.14;66.48;100517.22;10381087;28;20045;-59
2021/08/13 00:13:39;;;;;;;6.88;5.53;;;;;;;22.16;66.25;100524.16;10377483;28;20581;-61
2021/08/13 00:18:41;;;;;;;7.20;6.35;;;;;;;22.14;66.60;100520.75;10378959;28;20106;-60
2021/08/13 00:23:42;;;;;;;7.35;6.00;;;;;;;22.18;66.46;100511.22;10375412;28;20137;-60
2021/08/13 00:28:44;;;;;;;9.82;7.07;;;;;;;22.17;66.54;100509.56;10381015;28;20118;-59
2021/08/13 00:33:45;;;;;;;7.05;6.35;;;;;;;22.13;66.67;100508.28;10379941;28;20069;-60
2021/08/13 00:38:46;;;;;;;9.48;6.93;;;;;;;22.10;66.90;100519.50;10378984;28;20107;-59
2021/08/13 00:43:48;;;;;;;7.05;6.32;;;;;;;22.07;66.74;100519.88;10381596;28;20144;-59
2021/08/13 00:48:49;;;;;;;7.57;6.65;;;;;;;22.07;66.89;100519.88;10378877;28;20049;-60
2021/08/13 00:53:51;;;;;;;8.18;5.80;;;;;;;22.00;67.19;100514.38;10380067;28;20122;-60
2021/08/13 00:58:53;;;;;;;7.43;5.60;;;;;;;22.05;67.22;100530.06;10377014;28;20107;-60
2021/08/13 01:03:54;;;;;;;8.43;5.80;;;;;;;21.99;67.32;100520.00;10379603;28;20069;-61
2021/08/13 01:08:56;;;;;;;8.30;6.35;;;;;;;21.98;67.33;100505.63;10377463;28;20057;-63
2021/08/13 01:14:07;;;;;;;6.88;6.13;;;;;;;21.98;67.65;100510.16;10373995;28;20048;-60
2021/08/13 01:19:15;;;;;;;6.47;5.63;;;;;;;21.96;67.65;100513.06;10381506;28;20080;-58
2021/08/13 01:24:20;;;;;;;6.90;5.97;;;;;;;21.93;67.87;100507.22;10374982;28;20854;-62
2021/08/13 01:29:43;;;;;;;7.90;5.55;;;;;;;21.88;68.02;100489.66;10376803;28;20552;-60
2021/08/13 01:34:52;;;;;;;7.60;6.78;;;;;;;21.86;68.26;100485.47;10362019;28;20454;-60
2021/08/13 01:39:55;;;;;;;6.10;5.57;;;;;;;21.82;68.27;100489.59;10375553;28;20061;-60
2021/08/13 01:44:58;;;;;;;5.53;4.93;;;;;;;21.78;67.81;100499.97;10373717;28;20073;-60
2021/08/13 01:50:00;;;;;;;6.70;5.50;;;;;;;21.69;68.25;100495.69;10372920;28;20065;-60
2021/08/13 01:55:03;;;;;;;6.50;5.80;;;;;;;21.68;68.40;100502.16;10371840;28;20050;-60
2021/08/13 02:00:07;;;;;;;6.75;6.05;;;;;;;21.69;68.47;100511.94;10368456;28;20471;-62
2021/08/13 02:05:08;;;;;;;;;;;;;;;21.61;68.40;100517.47;10376732;28;20095;-60
2021/08/13 02:10:11;;;;;;;6.70;6.03;;;;;;;21.57;68.94;100522.41;10382228;28;19960;-59
2021/08/13 02:15:13;;;;;;;7.07;6.13;;;;;;;21.57;69.12;100527.00;10377482;28;20403;-59
2021/08/13 02:20:16;;;;;;;7.60;6.47;;;;;;;21.52;69.11;100514.88;10376545;28;20103;-59
2021/08/13 02:25:17;;;;;;;8.73;6.40;;;;;;;21.42;69.20;100521.56;10375867;28;20079;-60
2021/08/13 02:30:20;;;;;;;9.15;7.75;;;;;;;21.35;69.67;100507.97;10349082;28;20049;-58
2021/08/13 02:35:21;;;;;;;7.20;5.85;;;;;;;21.40;69.68;100518.22;10337037;28;20606;-59
2021/08/13 02:40:43;;;;;;;6.65;5.95;;;;;;;21.37;69.54;100514.03;10368962;28;20634;-59
2021/08/13 02:45:49;;;;;;;6.60;5.93;;;;;;;21.37;69.68;100519.44;10379258;28;20124;-58
2021/08/13 02:50:54;;;;;;;7.82;6.15;;;;;;;21.35;69.63;100521.50;10380907;28;20065;-58
2021/08/13 02:56:03;;;;;;;8.68;6.93;;;;;;;21.29;69.94;100514.97;10379243;28;20069;-58
2021/08/13 03:01:05;;;;;;;9.40;7.35;;;;;;;21.29;69.90;100495.19;10386177;28;20095;-59
2021/08/13 03:06:10;;;;;;;8.27;7.03;;;;;;;21.26;69.87;100509.06;10381827;28;20052;-57
2021/08/13 03:11:12;;;;;;;8.77;7.88;;;;;;;21.18;70.18;100510.88;10381661;28;20053;-58
2021/08/13 03:16:15;;;;;;;9.43;6.97;;;;;;;21.16;70.14;100504.78;10382687;28;20564;-60
2021/08/13 03:21:17;;;;;;;9.25;7.32;;;;;;;21.16;70.33;100495.84;10377699;28;20057;-60
2021/08/13 03:26:20;;;;;;;9.80;8.90;;;;;;;21.10;70.16;100492.00;10374713;28;20054;-59
2021/08/13 03:31:41;;;;;;;10.68;9.57;;;;;;;21.09;70.11;100490.34;10387260;28;20081;-60
2021/08/13 03:36:43;;;;;;;10.23;9.20;;;;;;;21.08;70.17;100485.94;10375143;28;20081;-58
2021/08/13 03:41:45;;;;;;;10.45;9.52;;;;;;;21.06;70.04;100485.28;10378268;28;20127;-60
2021/08/13 03:46:46;;;;;;;10.63;9.23;;;;;;;21.04;70.12;100497.34;10376805;28;20115;-60
2021/08/13 03:51:48;;;;;;;12.32;9.75;;;;;;;21.02;70.19;100509.16;10378492;28;20053;-59
2021/08/13 03:56:49;;;;;;;10.18;9.07;;;;;;;20.96;70.20;100506.38;10380588;28;20580;-59
2021/08/13 04:01:50;;;;;;;10.18;9.15;;;;;;;20.96;70.30;100517.22;10377196;28;20400;-59
2021/08/13 04:06:52;;;;;;;9.98;9.15;;;;;;;20.95;70.25;100507.41;10383414;28;20053;-58
2021/08/13 04:11:54;;;;;;;11.13;9.68;;;;;;;20.96;69.96;100517.22;10379694;28;20132;-59
2021/08/13 04:16:55;;;;;;;9.32;8.52;;;;;;;20.96;69.93;100517.22;10399677;28;20210;-58
2021/08/13 04:21:57;;;;;;;9.68;8.68;;;;;;;20.89;69.62;100519.78;10380953;28;20131;-59
2021/08/13 04:26:58;;;;;;;10.07;8.93;;;;;;;20.89;70.02;100546.03;10383351;28;20046;-60
2021/08/13 04:31:59;;;;;;;14.10;10.23;;;;;;;20.81;70.67;100545.06;10382321;28;20041;-59
2021/08/13 04:37:01;;;;;;;12.52;9.98;;;;;;;20.82;70.76;100552.16;10381865;28;20057;-59
2021/08/13 04:42:03;;;;;;;10.25;9.25;;;;;;;20.86;71.33;100565.31;10377927;28;20191;-59
2021/08/13 04:47:04;;;;;;;10.55;9.55;;;;;;;20.88;70.78;100568.69;10374991;28;20490;-60
2021/08/13 04:52:06;;;;;;;10.80;9.77;;;;;;;20.76;71.24;100581.81;10380751;28;20068;-58
2021/08/13 04:57:07;;;;;;;14.52;10.13;;;;;;;20.68;72.20;100587.28;10380718;28;20139;-57
2021/08/13 05:02:09;;;;;;;11.15;9.43;;;;;;;20.61;73.00;100579.03;10373948;28;20060;-59
2021/08/13 05:07:10;;;;;;;12.25;9.32;;;;;;;20.72;72.52;100570.53;10379579;28;20045;-60
2021/08/13 05:12:12;;;;;;;12.23;9.07;;;;;;;20.72;72.38;100559.69;10379480;28;20049;-61
2021/08/13 05:17:13;;;;;;;10.55;8.38;;;;;;;20.91;72.16;100562.91;10378812;28;20068;-60
2021/08/13 05:22:16;;;;;;;12.18;9.25;;;;;;;20.98;71.83;100558.44;10378584;28;20069;-62
2021/08/13 05:27:17;;;;;;;13.02;9.82;;;;;;;20.95;71.83;100556.09;10377311;28;20498;-60
2021/08/13 05:32:19;;;;;;;13.85;9.05;;;;;;;20.97;72.01;100564.88;10375984;28;20053;-60
2021/08/13 05:37:21;;;;;;;11.30;9.40;;;;;;;20.94;71.68;100562.53;10374382;28;20630;-60
2021/08/13 05:42:22;;;;;;;11.07;9.73;;;;;;;20.98;71.38;100571.97;10374883;28;20511;-61
2021/08/13 05:47:24;;;;;;;13.93;9.45;;;;;;;21.06;70.97;100573.75;10351626;28;20056;-61
2021/08/13 05:52:25;;;;;;;11.63;9.65;;;;;;;21.17;70.83;100563.31;10370316;28;20099;-59
2021/08/13 05:57:27;;;;;;;10.23;9.05;;;;;;;21.37;70.25;100579.00;10380161;28;20041;-60
2021/08/13 06:02:28;;;;;;;11.52;8.88;;;;;;;21.48;70.10;100581.25;10370190;28;20128;-58
2021/08/13 06:07:30;;;;;;;11.27;8.77;;;;;;;21.57;69.77;100578.47;10348222;28;20488;-63
2021/08/13 06:12:31;;;;;;;9.60;8.65;;;;;;;21.71;69.13;100572.22;10344879;28;20516;-60
2021/08/13 06:17:33;;;;;;;11.75;9.18;;;;;;;21.84;68.78;100583.22;10375532;28;20178;-61
2021/08/13 06:22:35;;;;;;;11.10;8.35;;;;;;;22.04;68.51;100560.94;10376604;28;20098;-60
2021/08/13 06:27:45;;;;;;;13.45;8.88;;;;;;;22.18;67.46;100572.75;10371309;28;20650;-61
2021/08/13 06:32:48;;;;;;;13.68;7.60;;;;;;;22.22;67.32;100565.91;10335831;28;21687;-61
2021/08/13 06:37:51;;;;;;;24.05;9.70;;;;;;;22.40;67.29;100592.63;10357739;28;20117;-59
2021/08/13 06:42:54;;;;;;;9.50;7.85;;;;;;;22.55;66.37;100587.97;10344337;28;20126;-62
2021/08/13 06:47:56;;;;;;;9.43;8.20;;;;;;;22.65;66.42;100590.34;10333931;28;20096;-60
2021/08/13 06:52:58;;;;;;;10.52;7.07;;;;;;;22.74;65.84;100599.19;10364295;28;20462;-59
2021/08/13 06:58:03;;;;;;;11.07;7.70;;;;;;;22.92;65.26;100594.13;10375482;28;20045;-59
2021/08/13 07:03:04;;;;;;;9.65;7.40;;;;;;;23.18;65.08;100613.56;10340247;28;20067;-59
2021/08/13 07:08:13;;;;;;;12.20;8.82;;;;;;;23.46;63.60;100606.25;10344113;28;20137;-61
2021/08/13 07:13:14;;;;;;;9.65;7.45;;;;;;;23.64;63.08;100604.84;10338908;28;20520;-60
2021/08/13 07:18:16;;;;;;;7.78;6.93;;;;;;;23.76;62.82;100599.69;10319647;28;20050;-60
2021/08/13 07:23:17;;;;;;;9.27;7.07;;;;;;;24.03;62.19;100605.28;10338442;28;20105;-59
2021/08/13 07:28:19;;;;;;;8.93;8.02;;;;;;;24.16;61.68;100597.16;10365903;28;20076;-60
2021/08/13 07:33:20;;;;;;;10.27;8.68;;;;;;;24.02;61.69;100619.91;10350998;28;20228;-61
2021/08/13 07:38:22;;;;;;;10.60;7.82;;;;;;;24.07;61.83;100623.69;10342517;28;20070;-60
2021/08/13 07:43:23;;;;;;;10.18;8.70;;;;;;;24.17;61.88;100623.31;10346582;28;21333;-62
2021/08/13 07:48:24;;;;;;;9.70;7.57;;;;;;;24.41;61.31;100616.47;10373517;28;20053;-64
2021/08/13 07:53:26;;;;;;;10.68;8.10;;;;;;;24.66;61.10;100611.28;10381995;28;20049;-62
2021/08/13 07:58:27;;;;;;;11.60;8.23;;;;;;;24.85;60.73;100614.25;10390676;28;20053;-62
2021/08/13 08:03:29;;;;;;;14.57;8.55;;;;;;;24.95;60.29;100609.22;10407395;28;20041;-60
2021/08/13 08:08:31;;;;;;;9.52;8.40;;;;;;;24.96;60.69;100620.94;10380895;28;20143;-60
2021/08/13 08:13:33;;;;;;;10.70;7.93;;;;;;;25.00;60.39;100616.78;10389396;28;20045;-61
2021/08/13 08:18:34;;;;;;;10.63;7.78;;;;;;;25.34;60.30;100623.03;10388477;28;20923;-61
2021/08/13 08:23:35;;;;;;;11.45;8.13;;;;;;;25.36;60.00;100626.41;10388589;28;20065;-61
2021/08/13 08:28:42;;;;;;;9.38;7.53;;;;;;;25.48;59.43;100630.16;10383141;28;20072;-61
2021/08/13 08:33:43;;;;;;;9.73;8.82;;;;;;;25.61;58.65;100640.16;10384845;28;20100;-62
2021/08/13 08:38:45;;;;;;;8.80;7.47;;;;;;;26.06;58.36;100636.69;10391866;28;20122;-62
2021/08/13 08:43:49;;;;;;;11.48;8.07;;;;;;;26.38;57.10;100634.84;10402952;28;20049;-62
2021/08/13 08:48:52;;;;;;;9.23;7.63;;;;;;;26.46;55.49;100641.94;10387300;28;20072;-62
2021/08/13 08:53:55;;;;;;;8.15;7.35;;;;;;;26.71;55.02;100632.97;10378839;28;20156;-60
2021/08/13 08:58:58;;;;;;;10.23;7.95;;;;;;;26.78;54.88;100639.22;10377533;28;20063;-62
2021/08/13 09:03:59;;;;;;;8.65;7.68;;;;;;;26.71;54.84;100633.84;10375027;28;20061;-61
2021/08/13 09:09:03;;;;;;;7.87;6.73;;;;;;;27.31;54.07;100627.03;10371235;28;20053;-62
2021/08/13 09:14:07;;;;;;;9.65;7.32;;;;;;;27.43;52.30;100622.50;10383433;28;20072;-61
2021/08/13 09:19:09;;;;;;;9.90;7.03;;;;;;;27.75;53.11;100629.75;10376723;28;20446;-60
2021/08/13 09:24:13;;;;;;;8.53;6.70;;;;;;;27.99;52.48;100628.84;10381897;28;20613;-60
2021/08/13 09:29:19;;;;;;;7.88;6.88;;;;;;;27.97;51.53;100635.59;10378862;22;20104;-61
2021/08/13 09:34:27;;;;;;;8.43;7.50;;;;;;;28.10;50.49;100629.94;10340335;28;20282;-67
2021/08/13 09:39:31;;;;;;;10.23;7.20;;;;;;;28.30;50.61;100623.38;10342270;28;20104;-60
2021/08/13 09:44:35;;;;;;;9.32;8.35;;;;;;;28.36;50.10;100622.47;10334688;28;20606;-62
2021/08/13 09:49:39;;;;;;;9.38;8.43;;;;;;;28.11;49.77;100615.22;10339294;28;20200;-60
2021/08/13 09:54:41;;;;;;;7.65;6.90;;;;;;;28.41;49.36;100630.81;10341376;28;20642;-61
2021/08/13 09:59:59;;;;;;;8.65;7.72;;;;;;;28.86;47.78;100629.50;10340738;28;20050;-61
2021/08/13 10:05:16;;;;;;;7.93;6.15;;;;;;;29.15;48.05;100641.44;10329118;28;20054;-67
2021/08/13 10:10:26;;;;;;;7.90;6.57;;;;;;;29.79;47.02;100636.06;10330773;28;20053;-60
2021/08/13 10:15:32;;;;;;;8.30;7.47;;;;;;;29.73;45.32;100638.94;10339396;28;20050;-63
2021/08/13 10:20:40;;;;;;;7.78;7.00;;;;;;;30.02;45.48;100622.56;10337620;28;20491;-62
2021/08/13 10:25:43;;;;;;;7.20;6.50;;;;;;;30.80;43.98;100620.16;10337804;28;20065;-62
2021/08/13 10:30:45;;;;;;;7.88;6.43;;;;;;;32.48;41.01;100619.13;10331941;28;20050;-60
2021/08/13 10:35:56;;;;;;;8.70;6.03;;;;;;;35.31;34.77;100603.66;10337339;28;20104;-61
2021/08/13 10:40:59;;;;;;;;;;;;;;;35.17;33.85;100606.97;10335986;28;20054;-62
2021/08/13 10:46:03;;;;;;;7.15;6.22;;;;;;;33.60;36.40;100604.50;10333204;28;20331;-62
2021/08/13 10:51:05;;;;;;;6.72;6.13;;;;;;;33.22;36.73;100609.25;10339294;28;20061;-61
2021/08/13 10:56:07;;;;;;;6.88;6.18;;;;;;;32.91;37.63;100598.84;10337349;28;20139;-64
2021/08/13 11:01:09;;;;;;;8.35;6.45;;;;;;;33.60;37.41;100597.06;10362387;28;20104;-63
2021/08/13 11:06:11;;;;;;;6.88;6.28;;;;;;;34.29;36.31;100585.97;10343551;28;20053;-64
2021/08/13 11:11:14;;;;;;;6.88;6.22;;;;;;;35.32;34.79;100594.25;10345120;28;20089;-63
2021/08/13 11:16:24;;;;;;;7.13;6.05;;;;;;;35.80;32.50;100589.09;10337555;28;20046;-64
2021/08/13 11:21:49;;;;;;;6.00;5.38;;;;;;;36.42;31.82;100583.19;10336924;28;20045;-64
2021/08/13 11:26:50;;;;;;;6.65;6.05;;;;;;;37.50;29.77;100583.00;10345273;28;20053;-64
2021/08/13 11:31:51;;;;;;;6.78;5.85;;;;;;;36.95;30.07;100586.09;10340346;28;20770;-63
2021/08/13 11:36:53;;;;;;;6.47;5.88;;;;;;;36.62;31.31;100576.66;10347693;28;20046;-64
2021/08/13 11:41:55;;;;;;;6.78;6.05;;;;;;;36.20;32.21;100578.91;10343745;28;20045;-66
2021/08/13 11:46:57;;;;;;;6.07;5.18;;;;;;;36.53;31.97;100567.34;10340730;28;20073;-63
2021/08/13 11:52:00;;;;;;;6.90;6.20;;;;;;;35.80;32.32;100566.13;10336741;28;20518;-63
2021/08/13 11:57:12;;;;;;;6.90;6.30;;;;;;;35.68;33.38;100556.19;10344209;28;20069;-64
2021/08/13 12:02:26;;;;;;;6.60;6.00;;;;;;;35.79;33.87;100556.97;10330514;28;20104;-66
2021/08/13 12:07:28;;;;;;;6.43;5.82;;;;;;;35.88;32.59;100555.28;10344841;28;20131;-66
2021/08/13 12:12:29;;;;;;;6.55;6.05;;;;;;;35.84;32.11;100559.75;10340505;28;20123;-66
2021/08/13 12:17:31;;;;;;;6.85;6.10;;;;;;;35.35;33.17;100571.56;10343317;28;24347;-64
2021/08/13 12:22:38;;;;;;;6.97;6.32;;;;;;;35.17;33.42;100562.72;10343170;28;21054;-65
2021/08/13 12:27:42;;;;;;;6.55;5.95;;;;;;;35.50;33.33;100559.59;10342448;28;20045;-63
2021/08/13 12:32:44;;;;;;;6.32;5.72;;;;;;;35.35;33.25;100571.56;10337713;28;20073;-63
2021/08/13 12:37:45;;;;;;;6.30;5.78;;;;;;;35.36;33.90;100553.84;10342427;28;20515;-63
2021/08/13 12:42:51;;;;;;;6.60;6.00;;;;;;;35.11;33.86;100550.00;10329209;28;20066;-64
2021/08/13 12:47:52;;;;;;;5.95;5.45;;;;;;;34.94;32.98;100546.75;10341636;28;20050;-65
2021/08/13 12:53:09;;;;;;;6.88;5.60;;;;;;;35.09;33.66;100555.00;10341226;28;20057;-65
2021/08/13 12:58:27;;;;;;;6.75;6.20;;;;;;;34.73;33.88;100546.75;10337137;28;20054;-64
2021/08/13 13:03:29;;;;;;;7.88;5.70;;;;;;;35.18;33.49;100553.31;10338966;28;20137;-64
2021/08/13 13:08:45;;;;;;;6.28;5.78;;;;;;;35.35;33.59;100538.34;10340915;28;20054;-66
2021/08/13 13:13:52;;;;;;;5.97;5.38;;;;;;;34.47;34.43;100532.97;10340117;28;20071;-65
2021/08/13 13:18:53;;;;;;;8.45;6.10;;;;;;;33.73;35.75;100537.78;10334048;28;20054;-67
2021/08/13 13:23:57;;;;;;;6.55;5.88;;;;;;;33.38;36.36;100521.91;10338249;28;20522;-63
2021/08/13 13:29:10;;;;;;;7.57;6.63;;;;;;;32.49;38.20;100522.44;10338375;28;20650;-62
2021/08/13 13:34:21;;;;;;;9.80;8.43;;;;;;;32.06;39.10;100525.03;10337675;28;20065;-62
2021/08/13 13:39:22;;;;;;;8.30;6.63;;;;;;;31.66;39.63;100529.03;10333858;28;20049;-61
2021/08/13 13:44:24;;;;;;;8.20;6.70;;;;;;;31.52;41.01;100530.47;10332682;28;20203;-64
2021/08/13 13:49:26;;;;;;;6.97;6.28;;;;;;;31.18;41.64;100538.84;10339266;28;20053;-61
2021/08/13 13:54:27;;;;;;;8.00;7.05;;;;;;;30.78;42.54;100537.16;10339510;28;20119;-62
2021/08/13 13:59:29;;;;;;;7.53;6.30;;;;;;;30.58;42.87;100526.66;10334138;28;20065;-60
2021/08/13 14:04:30;;;;;;;9.38;7.00;;;;;;;30.41;43.42;100522.00;10332327;28;20108;-63
2021/08/13 14:09:31;;;;;;;7.30;6.60;;;;;;;30.16;45.91;100527.84;10337323;28;20073;-62
2021/08/13 14:14:33;;;;;;;7.28;6.60;;;;;;;30.53;45.63;100524.66;10338824;28;20042;-62
2021/08/13 14:19:35;;;;;;;8.32;7.18;;;;;;;31.10;45.00;100533.78;10331352;28;20108;-62
2021/08/13 14:24:36;;;;;;;6.88;6.20;;;;;;;31.66;43.32;100542.81;10335783;28;20077;-60
2021/08/13 14:29:37;;;;;;;6.20;5.60;;;;;;;31.71;42.20;100545.59;10339724;28;20100;-62
2021/08/13 14:34:39;;;;;;;8.68;5.75;;;;;;;31.59;42.59;100546.81;10335247;28;20069;-61
2021/08/13 14:39:44;;;;;;;6.60;5.72;;;;;;;31.25;43.95;100536.75;10334191;28;20049;-60
2021/08/13 14:44:45;;;;;;;6.32;5.70;;;;;;;30.83;43.92;100542.72;10328668;28;20126;-63
2021/08/13 14:49:46;;;;;;;6.90;5.78;;;;;;;30.69;43.91;100539.47;10330573;28;20046;-62
2021/08/13 14:54:48;;;;;;;7.35;6.05;;;;;;;30.85;43.66;100518.56;10337130;28;20046;-60
2021/08/13 14:59:50;;;;;;;6.35;5.60;;;;;;;31.07;44.27;100515.06;10330071;28;20097;-61
2021/08/13 15:04:51;;;;;;;6.47;5.82;;;;;;;30.93;44.77;100518.13;10332760;28;20045;-60
2021/08/13 15:09:52;;;;;;;6.07;5.47;;;;;;;31.03;44.40;100511.97;10332222;28;20073;-62
2021/08/13 15:14:54;;;;;;;7.70;6.28;;;;;;;30.97;44.46;100513.81;10336528;28;20100;-61
2021/08/13 15:19:55;;;;;;;7.18;5.72;;;;;;;30.71;45.19;100503.53;10336571;28;20110;-63
2021/08/13 15:24:57;;;;;;;6.35;5.75;;;;;;;30.83;44.43;100502.31;10336246;28;20493;-64
2021/08/13 15:29:58;;;;;;;10.02;6.60;;;;;;;30.83;43.43;100490.50;10336416;28;20081;-63
2021/08/13 15:35:01;;;;;;;9.48;6.43;;;;;;;30.72;44.39;100489.53;10346231;28;20065;-63
2021/08/13 15:40:04;;;;;;;7.57;6.20;;;;;;;30.80;44.64;100485.50;10347454;28;20491;-63
2021/08/13 15:45:06;;;;;;;6.88;6.18;;;;;;;30.85;44.71;100483.69;10331753;28;20081;-62
2021/08/13 15:50:07;;;;;;;6.88;6.13;;;;;;;30.98;44.27;100477.00;10343379;28;20053;-64
2021/08/13 15:55:09;;;;;;;6.40;5.75;;;;;;;30.85;44.40;100464.44;10350443;23;20494;-55
2021/08/13 16:00:12;;;;;;;7.25;6.20;;;;;;;30.90;44.70;100473.84;10332480;28;20054;-54
2021/08/13 16:05:15;;;;;;;8.80;6.38;;;;;;;30.91;44.48;100465.34;10336305;28;20128;-54
2021/08/13 16:10:16;;;;;;;6.97;6.30;;;;;;;30.85;44.59;100474.59;10345311;28;20050;-53
2021/08/13 16:15:18;;;;;;;7.50;6.80;;;;;;;30.63;44.15;100464.41;10344401;28;20447;-54
2021/08/13 16:20:19;;;;;;;7.68;7.07;;;;;;;30.16;44.39;100442.75;10331798;28;20073;-53
2021/08/13 16:25:21;;;;;;;7.53;6.80;;;;;;;30.11;45.91;100467.38;10328170;28;20148;-53
2021/08/13 16:30:23;;;;;;;7.10;6.43;;;;;;;29.90;46.77;100504.59;10335203;28;20046;-53
2021/08/13 16:35:24;;;;;;;9.85;6.93;;;;;;;29.54;48.25;100570.50;10332065;28;20054;-53
2021/08/13 16:40:26;;;;;;;11.13;8.63;;;;;;;25.15;71.48;100613.84;10330795;28;20470;-53
2021/08/13 16:45:27;;;;;;;6.53;5.93;;;;;;;24.33;67.80;100559.53;10336487;28;20046;-58
2021/08/13 16:50:29;;;;;;;7.05;6.38;;;;;;;24.35;73.77;100550.13;10336259;28;20050;-56
2021/08/13 16:55:30;;;;;;;5.97;5.30;;;;;;;24.74;69.75;100541.38;10339044;28;20494;-55
2021/08/13 17:00:32;;;;;;;5.50;5.00;;;;;;;25.56;71.51;100544.59;10331530;28;20460;-52
2021/08/13 17:05:34;;;;;;;7.38;6.25;;;;;;;25.78;70.96;100517.88;10346244;28;20050;-53
2021/08/13 17:10:36;;;;;;;7.85;6.72;;;;;;;26.01;72.91;100541.88;10333536;28;20046;-53
2021/08/13 17:15:40;;;;;;;7.70;6.72;;;;;;;26.16;73.66;100538.03;10326107;28;20053;-53
2021/08/13 17:20:41;;;;;;;8.00;7.20;;;;;;;26.19;75.17;100537.59;10329238;28;20049;-53
2021/08/13 17:25:44;;;;;;;7.07;6.40;;;;;;;26.17;74.23;100535.09;10332959;28;20509;-54
2021/08/13 17:30:45;;;;;;;8.17;7.37;;;;;;;26.11;72.14;100542.25;10331237;28;20077;-52
2021/08/13 17:35:47;;;;;;;10.70;8.13;;;;;;;26.04;75.76;100546.91;10330955;28;20566;-53
2021/08/13 17:40:48;;;;;;;9.68;8.05;;;;;;;26.07;77.13;100546.47;10326815;28;20061;-55
2021/08/13 17:45:49;;;;;;;10.50;9.38;;;;;;;26.07;77.04;100546.47;10332480;28;20469;-56
2021/08/13 17:50:51;;;;;;;11.38;10.27;;;;;;;26.07;76.32;100551.91;10344041;28;20121;-53
2021/08/13 17:55:52;;;;;;;12.50;11.15;;;;;;;26.05;76.21;100553.22;10328319;28;20499;-54
2021/08/13 18:00:54;;;;;;;12.88;11.07;;;;;;;25.98;72.12;100560.56;10334934;28;20050;-53
2021/08/13 18:05:55;;;;;;;12.77;11.23;;;;;;;25.92;72.32;100567.72;10329915;28;20630;-53
2021/08/13 18:10:57;;;;;;;11.93;10.65;;;;;;;25.91;73.41;100566.03;10329617;28;20034;-54
2021/08/13 18:15:58;;;;;;;13.65;11.70;;;;;;;25.91;73.51;100579.66;10328853;28;20109;-56
2021/08/13 18:21:00;;;;;;;13.77;12.48;;;;;;;25.79;74.45;100578.69;10325027;28;20439;-54
2021/08/13 18:26:02;;;;;;;12.13;11.00;;;;;;;25.74;73.79;100590.22;10327467;28;20042;-55
2021/08/13 18:31:03;;;;;;;11.70;10.33;;;;;;;25.64;72.60;100598.88;10333484;28;20487;-55
2021/08/13 18:36:05;;;;;;;16.52;14.82;;;;;;;25.54;71.10;100602.03;10328086;28;20042;-54
2021/08/13 18:41:12;;;;;;;19.52;16.95;;;;;;;25.46;71.07;100610.47;10334491;28;20057;-56
2021/08/13 18:46:14;;;;;;;14.75;13.25;;;;;;;25.36;72.86;100607.34;10327525;28;20070;-53
2021/08/13 18:51:16;;;;;;;12.23;11.10;;;;;;;25.28;71.84;100619.25;10329848;28;20145;-54
2021/08/13 18:56:20;;;;;;;11.07;10.00;;;;;;;25.13;67.36;100622.22;10327670;28;20354;-55
2021/08/13 19:01:22;;;;;;;11.82;10.63;;;;;;;25.03;68.51;100628.06;10334936;28;20392;-57
2021/08/13 19:06:24;;;;;;;12.10;10.90;;;;;;;25.00;70.31;100633.09;10335033;28;20054;-53
2021/08/13 19:11:25;;;;;;;9.93;9.02;;;;;;;24.84;66.70;100634.34;10328567;28;20042;-53
2021/08/13 19:16:27;;;;;;;10.63;9.02;;;;;;;24.80;66.92;100643.97;10332182;28;20077;-53
2021/08/13 19:21:28;;;;;;;9.13;8.27;;;;;;;24.64;64.26;100650.66;10333740;28;20057;-54
2021/08/13 19:26:30;;;;;;;8.85;8.05;;;;;;;24.48;65.62;100651.84;10333190;28;20061;-54
2021/08/13 19:31:32;;;;;;;10.27;9.20;;;;;;;24.45;66.04;100663.97;10346321;28;20050;-54
2021/08/13 19:36:34;;;;;;;7.35;6.65;;;;;;;24.38;64.01;100671.31;10342982;28;20336;-54
2021/08/13 19:41:35;;;;;;;8.18;7.15;;;;;;;24.34;65.56;100673.56;10342802;28;20517;-54
2021/08/13 19:46:37;;;;;;;9.50;7.53;;;;;;;24.29;68.49;100680.66;10335190;28;20325;-53
2021/08/13 19:51:39;;;;;;;6.97;6.28;;;;;;;24.25;67.17;100685.69;10342652;28;20072;-53
2021/08/13 19:56:40;;;;;;;8.48;6.55;;;;;;;24.21;67.48;100695.28;10353155;28;20749;-52
2021/08/13 20:01:42;;;;;;;18.38;12.55;;;;;;;24.07;65.98;100705.25;10334849;28;20100;-52
2021/08/13 20:06:43;;;;;;;11.02;9.18;;;;;;;24.05;69.13;100707.34;10347073;28;20471;-55
2021/08/13 20:11:45;;;;;;;8.18;6.85;;;;;;;24.08;68.03;100700.66;10341473;28;20565;-54
2021/08/13 20:16:46;;;;;;;9.68;6.65;;;;;;;23.96;67.25;100689.50;10335391;28;20047;-54
2021/08/13 20:21:48;;;;;;;7.35;6.63;;;;;;;24.05;66.81;100711.94;10340844;28;20056;-53
2021/08/13 20:26:52;;;;;;;6.68;6.00;;;;;;;23.98;67.90;100703.75;10332716;28;20125;-53
2021/08/13 20:31:53;;;;;;;7.57;6.88;;;;;;;23.91;69.64;100692.84;10334904;28;20049;-53
2021/08/13 20:36:54;;;;;;;8.88;7.25;;;;;;;23.92;70.13;100708.13;10334812;28;20050;-56
2021/08/13 20:41:58;;;;;;;8.27;7.47;;;;;;;23.88;69.84;100704.09;10332358;28;20088;-53
2021/08/13 20:46:59;;;;;;;7.68;6.88;;;;;;;23.76;71.36;100700.25;10338244;28;20066;-53
2021/08/13 20:52:02;;;;;;;6.95;5.72;;;;;;;23.64;69.69;100708.97;10333331;28;20104;-53
2021/08/13 20:57:03;;;;;;;7.73;5.50;;;;;;;23.62;69.53;100708.31;10341638;28;20069;-53
2021/08/13 21:02:05;;;;;;;6.35;5.75;;;;;;;23.58;68.98;100712.44;10337352;28;20612;-55
2021/08/13 21:07:06;;;;;;;6.90;6.20;;;;;;;23.49;69.40;100702.78;10327138;28;20050;-54
2021/08/13 21:12:11;;;;;;;7.00;6.30;;;;;;;23.44;68.32;100702.53;10339739;28;20054;-53
2021/08/13 21:17:13;;;;;;;7.40;5.93;;;;;;;23.38;68.78;100708.78;10342956;28;20737;-55
2021/08/13 21:22:15;;;;;;;7.55;6.75;;;;;;;23.29;68.81;100699.91;10337788;28;20084;-54
2021/08/13 21:27:17;;;;;;;8.10;6.25;;;;;;;23.24;69.72;100699.66;10332762;28;20470;-55
2021/08/13 21:32:18;;;;;;;6.90;6.20;;;;;;;23.18;67.70;100706.72;10340169;28;20703;-54
2021/08/13 21:37:20;;;;;;;8.15;6.75;;;;;;;23.14;68.88;100710.88;10338103;28;20078;-52
2021/08/13 21:42:21;;;;;;;6.47;5.82;;;;;;;23.11;67.89;100705.81;10335649;28;20084;-53
2021/08/13 21:47:23;;;;;;;6.85;6.15;;;;;;;23.07;70.18;100709.94;10332402;28;20677;-54
2021/08/13 21:57:34;;;;;;;8.48;7.03;;;;;;;22.89;69.00;100713.94;10283809;28;20070;-63
2021/08/13 22:02:35;;;;;;;8.77;7.60;;;;;;;22.82;69.69;100706.75;10288678;28;20117;-65
2021/08/13 22:07:37;;;;;;;7.95;7.25;;;;;;;22.73;70.59;100709.59;10299806;28;20043;-64
2021/08/13 22:12:38;;;;;;;8.48;7.18;;;;;;;22.74;70.77;100721.28;10298065;28;20430;-64
2021/08/13 22:17:41;;;;;;;9.13;8.02;;;;;;;22.69;69.59;100718.31;10300081;28;20074;-63
2021/08/13 22:22:43;;;;;;;8.50;7.47;;;;;;;22.67;71.37;100717.66;10300356;28;20120;-63
2021/08/13 22:27:45;;;;;;;8.45;7.65;;;;;;;22.66;71.85;100710.56;10293417;28;20537;-63
2021/08/13 22:32:47;;;;;;;8.05;7.20;;;;;;;22.58;72.67;100706.94;10300112;28;20104;-64
2021/08/13 22:37:49;;;;;;;8.23;7.43;;;;;;;22.56;71.80;100719.88;10300034;28;20479;-63
2021/08/13 22:42:50;;;;;;;7.47;6.78;;;;;;;22.53;71.64;100714.81;10299237;28;20096;-63
2021/08/13 22:47:53;;;;;;;8.10;7.30;;;;;;;22.52;73.38;100723.13;10296107;28;20522;-63
2021/08/13 22:52:55;;;;;;;8.10;7.40;;;;;;;22.46;72.96;100722.03;10314839;28;20128;-63
2021/08/13 22:57:57;;;;;;;9.10;8.20;;;;;;;22.41;72.53;100722.59;10307978;28;20089;-63
2021/08/13 23:02:59;;;;;;;8.50;7.70;;;;;;;22.33;72.74;100730.00;10306815;28;20074;-62
2021/08/13 23:08:01;;;;;;;8.85;7.28;;;;;;;22.30;73.13;100736.59;10300750;28;20046;-62
2021/08/13 23:13:02;;;;;;;9.60;8.07;;;;;;;22.25;72.60;100736.34;10308355;28;20123;-63